Time,TemperatureF,DewpointF,PressureIn,WindDirection,WindDirectionDegrees,WindSpeedMPH,WindSpeedGustMPH,Humidity,HourlyPrecipIn,Conditions,Clouds,dailyrainin,SoftwareType,DateUTC
2013-01-27 10:59:00,24.1,0.9,29.90,North,0,0.0,0.0,36,0.00,,,0.00,WUHU216HW,2013-01-27 15:59:00,
2013-01-27 11:00:00,24.1,0.9,29.90,North,0,0.0,0.0,36,0.00,,,0.00,WUHU216HW,2013-01-27 16:00:00,
2013-01-27 11:05:00,24.1,0.9,29.90,North,0,0.0,0.0,36,0.00,,,0.00,WUHU216HW,2013-01-27 16:05:00,
2013-01-27 16:00:00,29.7,-0.5,29.87,North,0,0.0,0.0,27,0.00,,,0.00,WUHU216HW,2013-01-27 21:00:00,
2013-01-27 16:05:00,29.7,-0.5,29.87,North,0,0.0,0.0,27,0.00,,,0.00,WUHU216HW,2013-01-27 21:05:00,
2013-01-27 16:30:00,28.6,-1.4,29.88,North,0,0.0,0.0,27,0.00,,,0.00,WUHU216HW,2013-01-27 21:30:00,
2013-01-27 16:35:00,28.6,-1.4,29.88,North,0,0.0,0.0,27,0.00,,,0.00,WUHU216HW,2013-01-27 21:35:00,
2013-01-27 17:00:00,27.5,-1.6,29.89,North,0,0.0,0.0,28,0.00,,,0.00,WUHU216HW,2013-01-27 22:00:00,
2013-01-27 17:05:00,27.5,-1.6,29.89,North,0,0.0,0.0,28,0.00,,,0.00,WUHU216HW,2013-01-27 22:05:00,
2013-01-27 17:30:00,26.3,-1.0,29.91,North,0,0.0,0.0,30,0.00,,,0.00,WUHU216HW,2013-01-27 22:30:00,
2013-01-27 17:35:00,26.3,-1.0,29.91,North,0,0.0,0.0,30,0.00,,,0.00,WUHU216HW,2013-01-27 22:35:00,
2013-01-27 18:00:00,25.7,-0.2,29.93,North,0,0.0,0.0,32,0.00,,,0.00,WUHU216HW,2013-01-27 23:00:00,
2013-01-27 18:05:00,25.7,-0.2,29.93,North,0,0.0,0.0,32,0.00,,,0.00,WUHU216HW,2013-01-27 23:05:00,
2013-01-27 18:30:00,25.4,-0.4,29.94,North,0,0.0,0.0,32,0.00,,,0.00,WUHU216HW,2013-01-27 23:30:00,
2013-01-27 18:35:00,25.4,-0.4,29.94,North,0,0.0,0.0,32,0.00,,,0.00,WUHU216HW,2013-01-27 23:35:00,
2013-01-27 19:00:00,24.5,0.0,29.94,North,0,0.0,0.0,34,0.00,,,0.00,WUHU216HW,2013-01-28 00:00:00,
2013-01-27 19:05:00,24.5,0.0,29.94,North,0,0.0,0.0,34,0.00,,,0.00,WUHU216HW,2013-01-28 00:05:00,
2013-01-27 19:30:00,23.4,0.2,29.95,North,0,0.0,0.0,36,0.00,,,0.00,WUHU216HW,2013-01-28 00:30:00,
2013-01-27 19:35:00,23.4,0.2,29.95,North,0,0.0,0.0,36,0.00,,,0.00,WUHU216HW,2013-01-28 00:35:00,
2013-01-27 20:00:00,23.0,-0.1,29.95,North,0,0.0,0.0,36,0.00,,,0.00,WUHU216HW,2013-01-28 01:00:00,
2013-01-27 20:05:00,23.0,-0.1,29.95,North,0,0.0,0.0,36,0.00,,,0.00,WUHU216HW,2013-01-28 01:05:00,
2013-01-27 20:30:00,21.8,-0.6,29.95,North,0,0.0,0.0,37,0.00,,,0.00,WUHU216HW,2013-01-28 01:30:00,
2013-01-27 20:35:00,21.8,-0.6,29.95,North,0,0.0,0.0,37,0.00,,,0.00,WUHU216HW,2013-01-28 01:35:00,
2013-01-27 21:00:00,20.5,-0.5,29.95,North,0,0.0,0.0,39,0.00,,,0.00,WUHU216HW,2013-01-28 02:00:00,
2013-01-27 21:05:00,20.5,-0.5,29.95,North,0,0.0,0.0,39,0.00,,,0.00,WUHU216HW,2013-01-28 02:05:00,
2013-01-27 21:30:00,18.9,-0.4,29.94,North,0,0.0,0.0,42,0.00,,,0.00,WUHU216HW,2013-01-28 02:30:00,
2013-01-27 21:35:00,18.9,-0.4,29.94,North,0,0.0,0.0,42,0.00,,,0.00,WUHU216HW,2013-01-28 02:35:00,
2013-01-27 22:00:00,17.6,-1.6,29.95,North,0,0.0,0.0,42,0.00,,,0.00,WUHU216HW,2013-01-28 03:00:00,
2013-01-27 22:05:00,17.6,-1.6,29.95,North,0,0.0,0.0,42,0.00,,,0.00,WUHU216HW,2013-01-28 03:05:00,
2013-01-27 22:30:00,18.4,-1.4,29.95,North,0,0.0,0.0,41,0.00,,,0.00,WUHU216HW,2013-01-28 03:30:00,
2013-01-27 22:35:00,18.4,-1.4,29.95,North,0,0.0,0.0,41,0.00,,,0.00,WUHU216HW,2013-01-28 03:35:00,
2013-01-27 23:00:00,17.8,-1.9,29.97,North,0,0.0,0.0,41,0.00,,,0.00,WUHU216HW,2013-01-28 04:00:00,
2013-01-27 23:05:00,17.8,-1.9,29.97,North,0,0.0,0.0,41,0.00,,,0.00,WUHU216HW,2013-01-28 04:05:00,
2013-01-27 23:30:00,17.6,-1.1,29.97,North,0,0.0,0.0,43,0.00,,,0.00,WUHU216HW,2013-01-28 04:30:00,
2013-01-27 23:35:00,17.6,-1.1,29.97,North,0,0.0,0.0,43,0.00,,,0.00,WUHU216HW,2013-01-28 04:35:00,